sensor_id;sensor_type;location;lat;lon;timestamp;pressure;altitude;pressure_sealevel;temperature;humidity
47753;BME280;2038;51.728;6.674;2023-03-20T00:02:03;101256.66;;;10.72;100.00
47753;BME280;2038;51.728;6.674;2023-03-20T00:04:31;101259.53;;;10.77;100.00
47753;BME280;2038;51.728;6.674;2023-03-20T00:06:57;101258.00;;;10.79;100.00
47753;BME280;2038;51.728;6.674;2023-03-20T00:09:24;101251.56;;;10.72;100.00
47753;BME280;2038;51.728;6.674;2023-03-20T00:11:54;101250.25;;;10.66;100.00
47753;BME280;2038;51.728;6.674;2023-03-20T00:14:22;101255.34;;;10.77;100.00
47753;BME280;2038;51.728;6.674;2023-03-20T00:16:49;101252.31;;;10.71;100.00
47753;BME280;2038;51.728;6.674;2023-03-20T00:19:17;101258.44;;;10.73;100.00
47753;BME280;2038;51.728;6.674;2023-03-20T00:21:49;101272.50;;;10.68;100.00
47753;BME280;2038;51.728;6.674;2023-03-20T00:24:17;101263.63;;;10.63;100.00
47753;BME280;2038;51.728;6.674;2023-03-20T00:26:45;101265.75;;;10.57;100.00
47753;BME280;2038;51.728;6.674;2023-03-20T00:29:33;101263.97;;;10.56;100.00
47753;BME280;2038;51.728;6.674;2023-03-20T00:31:59;101251.00;;;10.53;100.00
47753;BME280;2038;51.728;6.674;2023-03-20T00:34:27;101247.22;;;10.60;100.00
47753;BME280;2038;51.728;6.674;2023-03-20T00:36:57;101254.31;;;10.64;100.00
47753;BME280;2038;51.728;6.674;2023-03-20T00:39:24;101256.78;;;10.62;100.00
47753;BME280;2038;51.728;6.674;2023-03-20T00:41:53;101246.78;;;10.54;100.00
47753;BME280;2038;51.728;6.674;2023-03-20T00:46:57;101235.03;;;10.56;100.00
47753;BME280;2038;51.728;6.674;2023-03-20T00:49:28;101235.50;;;10.50;100.00
47753;BME280;2038;51.728;6.674;2023-03-20T00:52:00;101238.81;;;10.49;100.00
47753;BME280;2038;51.728;6.674;2023-03-20T00:54:28;101243.91;;;10.49;100.00
47753;BME280;2038;51.728;6.674;2023-03-20T01:00:06;101251.09;;;10.43;100.00
47753;BME280;2038;51.728;6.674;2023-03-20T01:02:47;101242.88;;;10.36;100.00
47753;BME280;2038;51.728;6.674;2023-03-20T01:05:13;101244.66;;;10.37;100.00
47753;BME280;2038;51.728;6.674;2023-03-20T01:07:39;101236.47;;;10.41;100.00
47753;BME280;2038;51.728;6.674;2023-03-20T01:10:07;101238.88;;;10.39;100.00
47753;BME280;2038;51.728;6.674;2023-03-20T01:12:37;101241.91;;;10.45;100.00
47753;BME280;2038;51.728;6.674;2023-03-20T01:15:15;101240.88;;;10.31;100.00
47753;BME280;2038;51.728;6.674;2023-03-20T01:17:44;101249.75;;;10.37;100.00
47753;BME280;2038;51.728;6.674;2023-03-20T01:20:20;101251.63;;;10.39;100.00
47753;BME280;2038;51.728;6.674;2023-03-20T01:22:49;101246.78;;;10.42;100.00
47753;BME280;2038;51.728;6.674;2023-03-20T01:25:15;101247.34;;;10.38;100.00
47753;BME280;2038;51.728;6.674;2023-03-20T01:27:49;101251.22;;;10.45;100.00
47753;BME280;2038;51.728;6.674;2023-03-20T01:30:21;101249.56;;;10.57;100.00
47753;BME280;2038;51.728;6.674;2023-03-20T01:32:50;101244.03;;;10.51;100.00
47753;BME280;2038;51.728;6.674;2023-03-20T01:35:20;101234.94;;;10.43;100.00
47753;BME280;2038;51.728;6.674;2023-03-20T01:37:50;101235.50;;;10.50;100.00
47753;BME280;2038;51.728;6.674;2023-03-20T01:40:26;101236.69;;;10.44;100.00
47753;BME280;2038;51.728;6.674;2023-03-20T01:42:59;101226.84;;;10.48;100.00
47753;BME280;2038;51.728;6.674;2023-03-20T01:45:33;101236.25;;;10.49;100.00
47753;BME280;2038;51.728;6.674;2023-03-20T01:48:11;101248.00;;;10.47;100.00
47753;BME280;2038;51.728;6.674;2023-03-20T01:50:41;101253.63;;;10.43;100.00
47753;BME280;2038;51.728;6.674;2023-03-20T01:53:21;101261.19;;;10.42;100.00
47753;BME280;2038;51.728;6.674;2023-03-20T01:55:52;101260.84;;;10.37;100.00
47753;BME280;2038;51.728;6.674;2023-03-20T01:58:25;101279.59;;;10.49;100.00
47753;BME280;2038;51.728;6.674;2023-03-20T02:01:03;101273.81;;;10.40;100.00
47753;BME280;2038;51.728;6.674;2023-03-20T02:03:31;101276.88;;;10.36;100.00
47753;BME280;2038;51.728;6.674;2023-03-20T02:05:58;101275.56;;;10.29;100.00
47753;BME280;2038;51.728;6.674;2023-03-20T02:08:26;101268.03;;;10.31;100.00
47753;BME280;2038;51.728;6.674;2023-03-20T02:10:59;101266.59;;;10.35;100.00
47753;BME280;2038;51.728;6.674;2023-03-20T02:13:29;101267.16;;;10.30;100.00
47753;BME280;2038;51.728;6.674;2023-03-20T02:16:03;101274.66;;;10.29;100.00
47753;BME280;2038;51.728;6.674;2023-03-20T02:18:32;101278.66;;;10.25;100.00
47753;BME280;2038;51.728;6.674;2023-03-20T02:25:00;101287.50;;;10.19;100.00
47753;BME280;2038;51.728;6.674;2023-03-20T02:39:41;101275.56;;;10.29;100.00
47753;BME280;2038;51.728;6.674;2023-03-20T02:42:49;101264.81;;;10.33;100.00
47753;BME280;2038;51.728;6.674;2023-03-20T02:48:32;101264.50;;;10.07;100.00
47753;BME280;2038;51.728;6.674;2023-03-20T02:51:34;101271.69;;;10.01;100.00
47753;BME280;2038;51.728;6.674;2023-03-20T02:54:25;101273.53;;;9.92;100.00
47753;BME280;2038;51.728;6.674;2023-03-20T03:00:41;101233.59;;;10.03;100.00
47753;BME280;2038;51.728;6.674;2023-03-20T03:03:26;101229.38;;;10.03;100.00
47753;BME280;2038;51.728;6.674;2023-03-20T03:06:06;101242.38;;;10.06;100.00
47753;BME280;2038;51.728;6.674;2023-03-20T03:08:41;101233.34;;;10.00;100.00
47753;BME280;2038;51.728;6.674;2023-03-20T03:11:12;101227.44;;;10.11;100.00
47753;BME280;2038;51.728;6.674;2023-03-20T03:13:43;101221.19;;;10.07;100.00
47753;BME280;2038;51.728;6.674;2023-03-20T03:16:29;101214.69;;;10.11;100.00
47753;BME280;2038;51.728;6.674;2023-03-20T03:19:08;101208.91;;;10.02;100.00
47753;BME280;2038;51.728;6.674;2023-03-20T03:21:40;101214.22;;;10.05;100.00
47753;BME280;2038;51.728;6.674;2023-03-20T03:24:29;101217.78;;;10.07;100.00
47753;BME280;2038;51.728;6.674;2023-03-20T03:27:06;101218.91;;;10.10;100.00
47753;BME280;2038;51.728;6.674;2023-03-20T03:29:43;101233.63;;;10.14;100.00
47753;BME280;2038;51.728;6.674;2023-03-20T03:32:47;101240.03;;;10.09;100.00
47753;BME280;2038;51.728;6.674;2023-03-20T03:35:19;101236.59;;;10.09;100.00
47753;BME280;2038;51.728;6.674;2023-03-20T03:40:42;101243.78;;;10.03;100.00
47753;BME280;2038;51.728;6.674;2023-03-20T03:43:25;101244.91;;;10.06;100.00
47753;BME280;2038;51.728;6.674;2023-03-20T03:46:00;101249.41;;;10.20;100.00
47753;BME280;2038;51.728;6.674;2023-03-20T03:48:54;101257.50;;;10.26;100.00
47753;BME280;2038;51.728;6.674;2023-03-20T03:51:27;101256.94;;;10.19;100.00
47753;BME280;2038;51.728;6.674;2023-03-20T03:54:04;101247.19;;;10.03;100.00
47753;BME280;2038;51.728;6.674;2023-03-20T03:56:34;101243.63;;;9.90;100.00
47753;BME280;2038;51.728;6.674;2023-03-20T03:59:12;101234.00;;;9.85;100.00
47753;BME280;2038;51.728;6.674;2023-03-20T04:01:50;101234.06;;;10.09;100.00
47753;BME280;2038;51.728;6.674;2023-03-20T04:04:18;101229.63;;;10.06;100.00
47753;BME280;2038;51.728;6.674;2023-03-20T04:06:47;101225.09;;;10.02;100.00
47753;BME280;2038;51.728;6.674;2023-03-20T04:09:13;101219.72;;;9.99;100.00
47753;BME280;2038;51.728;6.674;2023-03-20T04:11:39;101220.75;;;10.01;100.00
47753;BME280;2038;51.728;6.674;2023-03-20T04:14:05;101216.66;;;10.03;100.00
47753;BME280;2038;51.728;6.674;2023-03-20T04:16:31;101211.88;;;9.96;100.00
47753;BME280;2038;51.728;6.674;2023-03-20T04:18:58;101208.22;;;9.93;100.00
47753;BME280;2038;51.728;6.674;2023-03-20T04:21:24;101208.56;;;9.97;100.00
47753;BME280;2038;51.728;6.674;2023-03-20T04:23:50;101203.78;;;9.90;100.00
47753;BME280;2038;51.728;6.674;2023-03-20T04:26:16;101203.97;;;9.81;100.00
47753;BME280;2038;51.728;6.674;2023-03-20T04:28:43;101197.25;;;9.82;100.00
47753;BME280;2038;51.728;6.674;2023-03-20T04:31:09;101197.44;;;9.73;100.00
47753;BME280;2038;51.728;6.674;2023-03-20T04:33:36;101198.84;;;9.70;100.00
47753;BME280;2038;51.728;6.674;2023-03-20T04:36:03;101190.69;;;9.74;100.00
47753;BME280;2038;51.728;6.674;2023-03-20T04:38:29;101188.81;;;9.83;100.00
47753;BME280;2038;51.728;6.674;2023-03-20T04:40:55;101192.34;;;9.73;100.00
47753;BME280;2038;51.728;6.674;2023-03-20T04:43:21;101200.28;;;9.66;100.00
47753;BME280;2038;51.728;6.674;2023-03-20T04:45:48;101201.06;;;9.65;100.00
47753;BME280;2038;51.728;6.674;2023-03-20T04:48:14;101198.72;;;9.68;100.00
47753;BME280;2038;51.728;6.674;2023-03-20T04:50:40;101201.22;;;9.57;100.00
47753;BME280;2038;51.728;6.674;2023-03-20T04:53:07;101200.34;;;9.56;100.00
47753;BME280;2038;51.728;6.674;2023-03-20T04:55:33;101195.06;;;9.43;100.00
47753;BME280;2038;51.728;6.674;2023-03-20T04:57:59;101196.84;;;9.44;100.00
47753;BME280;2038;51.728;6.674;2023-03-20T05:00:25;101199.63;;;9.47;100.00
47753;BME280;2038;51.728;6.674;2023-03-20T05:02:52;101201.59;;;9.39;100.00
47753;BME280;2038;51.728;6.674;2023-03-20T05:05:18;101194.84;;;9.40;100.00
47753;BME280;2038;51.728;6.674;2023-03-20T05:07:44;101198.41;;;9.42;100.00
47753;BME280;2038;51.728;6.674;2023-03-20T05:10:10;101188.50;;;9.35;100.00
47753;BME280;2038;51.728;6.674;2023-03-20T05:12:37;101198.47;;;9.32;100.00
47753;BME280;2038;51.728;6.674;2023-03-20T05:15:03;101203.00;;;9.36;100.00
47753;BME280;2038;51.728;6.674;2023-03-20T05:17:29;101201.75;;;9.31;100.00
47753;BME280;2038;51.728;6.674;2023-03-20T05:19:56;101206.59;;;9.38;100.00
47753;BME280;2038;51.728;6.674;2023-03-20T05:22:22;101205.88;;;9.51;100.00
47753;BME280;2038;51.728;6.674;2023-03-20T05:24:48;101196.94;;;9.34;100.00
47753;BME280;2038;51.728;6.674;2023-03-20T05:27:15;101201.75;;;9.31;100.00
47753;BME280;2038;51.728;6.674;2023-03-20T05:29:41;101204.84;;;9.27;100.00
47753;BME280;2038;51.728;6.674;2023-03-20T05:32:07;101213.78;;;9.22;100.00
47753;BME280;2038;51.728;6.674;2023-03-20T05:34:33;101201.31;;;9.25;100.00
47753;BME280;2038;51.728;6.674;2023-03-20T05:36:59;101215.50;;;9.33;100.00
47753;BME280;2038;51.728;6.674;2023-03-20T05:39:26;101195.19;;;9.23;100.00
47753;BME280;2038;51.728;6.674;2023-03-20T05:41:52;101197.66;;;9.21;100.00
47753;BME280;2038;51.728;6.674;2023-03-20T05:44:18;101194.97;;;9.20;100.00
47753;BME280;2038;51.728;6.674;2023-03-20T05:46:45;101196.88;;;9.22;100.00
47753;BME280;2038;51.728;6.674;2023-03-20T05:49:11;101197.13;;;9.25;100.00
47753;BME280;2038;51.728;6.674;2023-03-20T05:51:37;101201.72;;;9.41;100.00
47753;BME280;2038;51.728;6.674;2023-03-20T05:54:04;101214.38;;;9.29;100.00
47753;BME280;2038;51.728;6.674;2023-03-20T05:56:30;101215.00;;;9.27;100.00
47753;BME280;2038;51.728;6.674;2023-03-20T05:58:56;101204.91;;;9.17;100.00
47753;BME280;2038;51.728;6.674;2023-03-20T06:01:23;101205.31;;;9.11;100.00
47753;BME280;2038;51.728;6.674;2023-03-20T06:03:49;101210.94;;;9.29;100.00
47753;BME280;2038;51.728;6.674;2023-03-20T06:06:16;101197.66;;;9.21;100.00
47753;BME280;2038;51.728;6.674;2023-03-20T06:08:43;101214.84;;;9.14;100.00
47753;BME280;2038;51.728;6.674;2023-03-20T06:11:09;101215.25;;;9.08;100.00
47753;BME280;2038;51.728;6.674;2023-03-20T06:13:36;101217.94;;;9.10;100.00
47753;BME280;2038;51.728;6.674;2023-03-20T06:16:03;101223.97;;;9.22;100.00
47753;BME280;2038;51.728;6.674;2023-03-20T06:18:29;101230.47;;;9.18;100.00
47753;BME280;2038;51.728;6.674;2023-03-20T06:20:57;101228.47;;;9.14;100.00
47753;BME280;2038;51.728;6.674;2023-03-20T06:23:23;101235.56;;;9.18;100.00
47753;BME280;2038;51.728;6.674;2023-03-20T06:25:50;101234.00;;;8.99;100.00
47753;BME280;2038;51.728;6.674;2023-03-20T06:28:16;101239.63;;;9.16;100.00
47753;BME280;2038;51.728;6.674;2023-03-20T06:30:43;101239.38;;;9.13;100.00
47753;BME280;2038;51.728;6.674;2023-03-20T06:33:09;101237.22;;;9.18;100.00
47753;BME280;2038;51.728;6.674;2023-03-20T06:35:36;101232.91;;;9.38;100.00
47753;BME280;2038;51.728;6.674;2023-03-20T06:38:05;101237.69;;;9.46;100.00
47753;BME280;2038;51.728;6.674;2023-03-20T06:40:32;101228.44;;;9.36;100.00
47753;BME280;2038;51.728;6.674;2023-03-20T06:42:58;101231.06;;;9.48;100.00
47753;BME280;2038;51.728;6.674;2023-03-20T06:45:25;101229.16;;;9.45;100.00
47753;BME280;2038;51.728;6.674;2023-03-20T06:47:51;101230.16;;;9.47;100.00
47753;BME280;2038;51.728;6.674;2023-03-20T06:50:17;101234.44;;;9.36;100.00
47753;BME280;2038;51.728;6.674;2023-03-20T06:52:43;101230.81;;;9.45;100.00
47753;BME280;2038;51.728;6.674;2023-03-20T06:55:10;101236.63;;;9.32;100.00
47753;BME280;2038;51.728;6.674;2023-03-20T06:57:36;101243.31;;;9.42;100.00
47753;BME280;2038;51.728;6.674;2023-03-20T07:00:04;101232.25;;;9.41;100.00
47753;BME280;2038;51.728;6.674;2023-03-20T07:02:32;101231.13;;;9.37;100.00
47753;BME280;2038;51.728;6.674;2023-03-20T07:04:58;101229.47;;;9.38;100.00
47753;BME280;2038;51.728;6.674;2023-03-20T07:07:25;101235.66;;;9.63;100.00
47753;BME280;2038;51.728;6.674;2023-03-20T07:09:51;101243.00;;;9.49;100.00
47753;BME280;2038;51.728;6.674;2023-03-20T07:12:17;101255.72;;;9.49;100.00
47753;BME280;2038;51.728;6.674;2023-03-20T07:14:44;101261.06;;;9.52;100.00
47753;BME280;2038;51.728;6.674;2023-03-20T07:17:11;101259.22;;;9.61;100.00
47753;BME280;2038;51.728;6.674;2023-03-20T07:19:38;101260.66;;;9.57;100.00
47753;BME280;2038;51.728;6.674;2023-03-20T07:22:07;101265.88;;;9.59;100.00
47753;BME280;2038;51.728;6.674;2023-03-20T07:24:45;101263.41;;;9.60;100.00
47753;BME280;2038;51.728;6.674;2023-03-20T07:27:11;101271.22;;;9.52;100.00
47753;BME280;2038;51.728;6.674;2023-03-20T07:29:37;101273.25;;;9.56;100.00
47753;BME280;2038;51.728;6.674;2023-03-20T07:32:03;101276.78;;;9.79;100.00
47753;BME280;2038;51.728;6.674;2023-03-20T07:34:29;101270.94;;;9.80;100.00
47753;BME280;2038;51.728;6.674;2023-03-20T07:36:56;101272.59;;;9.80;100.00
47753;BME280;2038;51.728;6.674;2023-03-20T07:39:22;101270.81;;;9.79;100.00
47753;BME280;2038;51.728;6.674;2023-03-20T07:41:48;101271.81;;;9.81;100.00
47753;BME280;2038;51.728;6.674;2023-03-20T07:44:15;101269.28;;;9.81;100.00
47753;BME280;2038;51.728;6.674;2023-03-20T07:46:44;101276.81;;;9.91;100.00
47753;BME280;2038;51.728;6.674;2023-03-20T07:49:16;101279.50;;;9.93;100.00
47753;BME280;2038;51.728;6.674;2023-03-20T07:51:44;101278.44;;;10.01;100.00
47753;BME280;2038;51.728;6.674;2023-03-20T07:54:14;101277.69;;;10.13;100.00
47753;BME280;2038;51.728;6.674;2023-03-20T07:56:41;101284.56;;;10.14;100.00
47753;BME280;2038;51.728;6.674;2023-03-20T07:59:07;101278.25;;;10.09;100.00
47753;BME280;2038;51.728;6.674;2023-03-20T08:01:34;101275.47;;;10.06;100.00
47753;BME280;2038;51.728;6.674;2023-03-20T08:04:00;101279.75;;;10.07;100.00
47753;BME280;2038;51.728;6.674;2023-03-20T08:06:26;101280.22;;;10.02;100.00
47753;BME280;2038;51.728;6.674;2023-03-20T08:08:52;101282.22;;;10.06;100.00
47753;BME280;2038;51.728;6.674;2023-03-20T08:11:19;101280.41;;;10.15;100.00
47753;BME280;2038;51.728;6.674;2023-03-20T08:13:46;101279.47;;;10.14;100.00
47753;BME280;2038;51.728;6.674;2023-03-20T08:16:12;101274.66;;;10.17;100.00
47753;BME280;2038;51.728;6.674;2023-03-20T08:18:38;101275.56;;;10.29;100.00
47753;BME280;2038;51.728;6.674;2023-03-20T08:21:04;101285.53;;;10.26;100.00
47753;BME280;2038;51.728;6.674;2023-03-20T08:23:32;101287.53;;;10.30;100.00
47753;BME280;2038;51.728;6.674;2023-03-20T08:25:58;101282.50;;;10.20;99.31
47753;BME280;2038;51.728;6.674;2023-03-20T08:28:24;101293.28;;;10.40;99.38
47753;BME280;2038;51.728;6.674;2023-03-20T08:30:51;101283.91;;;10.39;100.00
47753;BME280;2038;51.728;6.674;2023-03-20T08:33:18;101282.88;;;10.37;99.77
47753;BME280;2038;51.728;6.674;2023-03-20T08:35:57;101290.19;;;10.44;98.47
47753;BME280;2038;51.728;6.674;2023-03-20T08:38:24;101279.25;;;10.56;98.67
47753;BME280;2038;51.728;6.674;2023-03-20T08:40:51;101282.47;;;10.54;96.30
47753;BME280;2038;51.728;6.674;2023-03-20T08:43:19;101287.78;;;10.57;97.39
47753;BME280;2038;51.728;6.674;2023-03-20T08:45:45;101287.66;;;10.44;96.46
47753;BME280;2038;51.728;6.674;2023-03-20T08:48:12;101283.72;;;10.59;96.83
47753;BME280;2038;51.728;6.674;2023-03-20T08:50:38;101275.94;;;10.57;96.61
47753;BME280;2038;51.728;6.674;2023-03-20T08:53:05;101284.56;;;10.59;95.80
47753;BME280;2038;51.728;6.674;2023-03-20T08:55:32;101274.69;;;10.52;95.91
47753;BME280;2038;51.728;6.674;2023-03-20T08:57:58;101273.03;;;10.53;97.46
47753;BME280;2038;51.728;6.674;2023-03-20T09:00:25;101268.50;;;10.49;96.76
47753;BME280;2038;51.728;6.674;2023-03-20T09:02:52;101276.13;;;10.49;96.47
47753;BME280;2038;51.728;6.674;2023-03-20T09:05:18;101281.03;;;10.46;97.46
47753;BME280;2038;51.728;6.674;2023-03-20T09:07:44;101269.72;;;10.42;96.71
47753;BME280;2038;51.728;6.674;2023-03-20T09:10:11;101277.16;;;10.51;96.73
47753;BME280;2038;51.728;6.674;2023-03-20T09:12:38;101273.81;;;10.52;95.77
47753;BME280;2038;51.728;6.674;2023-03-20T09:15:05;101278.00;;;10.51;96.11
47753;BME280;2038;51.728;6.674;2023-03-20T09:17:31;101273.16;;;10.54;96.61
47753;BME280;2038;51.728;6.674;2023-03-20T09:19:58;101274.16;;;10.56;96.12
47753;BME280;2038;51.728;6.674;2023-03-20T09:22:24;101279.25;;;10.56;95.57
47753;BME280;2038;51.728;6.674;2023-03-20T09:24:50;101278.50;;;10.57;94.77
47753;BME280;2038;51.728;6.674;2023-03-20T09:27:17;101274.97;;;10.67;94.13
47753;BME280;2038;51.728;6.674;2023-03-20T09:29:43;101268.50;;;10.72;94.39
47753;BME280;2038;51.728;6.674;2023-03-20T09:32:11;101277.94;;;10.73;93.92
47753;BME280;2038;51.728;6.674;2023-03-20T09:34:38;101276.16;;;10.72;94.05
47753;BME280;2038;51.728;6.674;2023-03-20T09:37:05;101287.81;;;10.68;93.43
47753;BME280;2038;51.728;6.674;2023-03-20T09:39:31;101285.72;;;10.63;92.95
47753;BME280;2038;51.728;6.674;2023-03-20T09:42:06;101295.09;;;10.64;93.12
47753;BME280;2038;51.728;6.674;2023-03-20T09:45:04;101288.47;;;10.77;92.16
47753;BME280;2038;51.728;6.674;2023-03-20T09:47:59;101295.38;;;10.78;91.52
47753;BME280;2038;51.728;6.674;2023-03-20T09:50:43;101285.03;;;10.77;92.43
47753;BME280;2038;51.728;6.674;2023-03-20T09:53:29;101289.38;;;10.78;93.12
47753;BME280;2038;51.728;6.674;2023-03-20T09:55:58;101289.16;;;10.75;91.06
47753;BME280;2038;51.728;6.674;2023-03-20T09:58:34;101303.91;;;10.91;91.96
47753;BME280;2038;51.728;6.674;2023-03-20T10:01:05;101297.91;;;10.90;92.58
47753;BME280;2038;51.728;6.674;2023-03-20T10:03:52;101293.91;;;11.17;91.68
47753;BME280;2038;51.728;6.674;2023-03-20T10:06:22;101297.22;;;11.16;91.11
47753;BME280;2038;51.728;6.674;2023-03-20T10:08:49;101288.25;;;11.21;90.21
47753;BME280;2038;51.728;6.674;2023-03-20T10:18:04;101288.38;;;11.11;89.11
47753;BME280;2038;51.728;6.674;2023-03-20T10:21:04;101290.13;;;11.12;90.26
47753;BME280;2038;51.728;6.674;2023-03-20T10:23:50;101289.69;;;11.06;90.11
47753;BME280;2038;51.728;6.674;2023-03-20T10:26:28;101292.13;;;11.16;89.62
47753;BME280;2038;51.728;6.674;2023-03-20T10:29:00;101289.16;;;10.98;88.80
47753;BME280;2038;51.728;6.674;2023-03-20T10:34:47;101283.03;;;11.31;90.75
47753;BME280;2038;51.728;6.674;2023-03-20T10:37:35;101275.13;;;11.28;89.21
47753;BME280;2038;51.728;6.674;2023-03-20T10:43:15;101275.91;;;11.39;89.41
47753;BME280;2038;51.728;6.674;2023-03-20T10:45:49;101268.09;;;11.49;90.82
47753;BME280;2038;51.728;6.674;2023-03-20T10:48:48;101274.13;;;11.38;89.05
47753;BME280;2038;51.728;6.674;2023-03-20T10:51:24;101270.56;;;11.36;90.18
47753;BME280;2038;51.728;6.674;2023-03-20T10:56:54;101270.94;;;11.17;89.70
47753;BME280;2038;51.728;6.674;2023-03-20T10:59:38;101272.03;;;11.20;90.26
47753;BME280;2038;51.728;6.674;2023-03-20T11:02:11;101270.94;;;11.05;90.03
47753;BME280;2038;51.728;6.674;2023-03-20T11:04:38;101273.06;;;11.11;90.68
47753;BME280;2038;51.728;6.674;2023-03-20T11:09:37;101265.16;;;11.19;92.21
47753;BME280;2038;51.728;6.674;2023-03-20T11:12:04;101269.72;;;11.00;92.53
47753;BME280;2038;51.728;6.674;2023-03-20T11:14:38;101271.16;;;11.20;92.88
47753;BME280;2038;51.728;6.674;2023-03-20T11:17:05;101267.47;;;11.28;92.66
47753;BME280;2038;51.728;6.674;2023-03-20T11:19:34;101281.81;;;11.26;91.72
47753;BME280;2038;51.728;6.674;2023-03-20T11:22:12;101286.34;;;11.30;92.10
47753;BME280;2038;51.728;6.674;2023-03-20T11:24:54;101273.38;;;11.27;92.67
47753;BME280;2038;51.728;6.674;2023-03-20T11:27:31;101278.47;;;11.27;93.30
47753;BME280;2038;51.728;6.674;2023-03-20T11:30:04;101261.75;;;11.19;92.94
47753;BME280;2038;51.728;6.674;2023-03-20T11:32:37;101265.72;;;11.15;93.16
47753;BME280;2038;51.728;6.674;2023-03-20T11:35:30;101262.94;;;11.12;92.36
47753;BME280;2038;51.728;6.674;2023-03-20T11:38:13;101267.63;;;11.06;92.36
47753;BME280;2038;51.728;6.674;2023-03-20T11:40:41;101244.59;;;10.82;93.34
47753;BME280;2038;51.728;6.674;2023-03-20T11:43:14;101270.41;;;10.74;93.16
47753;BME280;2038;51.728;6.674;2023-03-20T11:45:46;101260.09;;;10.73;94.75
47753;BME280;2038;51.728;6.674;2023-03-20T11:48:21;101265.75;;;10.92;94.39
47753;BME280;2038;51.728;6.674;2023-03-20T11:51:06;101264.09;;;10.93;95.98
47753;BME280;2038;51.728;6.674;2023-03-20T11:53:57;101258.66;;;10.88;97.07
47753;BME280;2038;51.728;6.674;2023-03-20T11:56:27;101263.88;;;10.78;97.68
47753;BME280;2038;51.728;6.674;2023-03-20T12:01:41;101258.09;;;10.69;98.73
47753;BME280;2038;51.728;6.674;2023-03-20T12:04:30;101264.53;;;10.75;98.91
47753;BME280;2038;51.728;6.674;2023-03-20T12:07:11;101259.44;;;10.99;100.00
47753;BME280;2038;51.728;6.674;2023-03-20T12:09:51;101254.31;;;11.10;100.00
47753;BME280;2038;51.728;6.674;2023-03-20T12:12:48;101256.63;;;10.96;98.80
47753;BME280;2038;51.728;6.674;2023-03-20T12:15:24;101260.06;;;11.08;97.63
47753;BME280;2038;51.728;6.674;2023-03-20T12:18:29;101261.53;;;11.04;97.31
47753;BME280;2038;51.728;6.674;2023-03-20T12:21:21;101260.53;;;11.14;98.33
47753;BME280;2038;51.728;6.674;2023-03-20T12:23:57;101246.72;;;11.23;96.67
47753;BME280;2038;51.728;6.674;2023-03-20T12:26:41;101244.78;;;11.44;97.47
47753;BME280;2038;51.728;6.674;2023-03-20T12:29:26;101239.56;;;11.18;96.11
47753;BME280;2038;51.728;6.674;2023-03-20T12:32:02;101235.81;;;11.01;97.60
47753;BME280;2038;51.728;6.674;2023-03-20T12:34:36;101225.25;;;11.08;98.58
47753;BME280;2038;51.728;6.674;2023-03-20T12:37:12;101222.91;;;11.23;100.00
47753;BME280;2038;51.728;6.674;2023-03-20T12:54:31;101214.28;;;11.46;96.23
47753;BME280;2038;51.728;6.674;2023-03-20T12:57:29;101216.97;;;11.47;96.42
47753;BME280;2038;51.728;6.674;2023-03-20T13:00:37;101214.69;;;11.52;96.39
47753;BME280;2038;51.728;6.674;2023-03-20T13:10:16;101205.25;;;11.26;94.36
47753;BME280;2038;51.728;6.674;2023-03-20T13:25:03;101198.78;;;11.43;97.78
47753;BME280;2038;51.728;6.674;2023-03-20T13:28:01;101191.72;;;11.52;99.25
47753;BME280;2038;51.728;6.674;2023-03-20T13:30:42;101188.53;;;11.67;99.24
47753;BME280;2038;51.728;6.674;2023-03-20T13:33:40;101200.31;;;11.77;99.02
47753;BME280;2038;51.728;6.674;2023-03-20T13:36:42;101191.09;;;11.79;98.70
47753;BME280;2038;51.728;6.674;2023-03-20T13:39:41;101186.19;;;11.82;98.41
47753;BME280;2038;51.728;6.674;2023-03-20T13:42:20;101188.13;;;11.73;95.83
47753;BME280;2038;51.728;6.674;2023-03-20T13:44:57;101189.66;;;11.71;95.00
47753;BME280;2038;51.728;6.674;2023-03-20T13:47:31;101186.09;;;11.69;96.19
47753;BME280;2038;51.728;6.674;2023-03-20T13:53:05;101183.28;;;11.53;96.93
47753;BME280;2038;51.728;6.674;2023-03-20T13:55:53;101174.53;;;11.49;97.63
47753;BME280;2038;51.728;6.674;2023-03-20T13:58:55;101176.56;;;11.42;98.42
47753;BME280;2038;51.728;6.674;2023-03-20T14:04:02;101159.41;;;11.39;98.45
47753;BME280;2038;51.728;6.674;2023-03-20T14:09:45;101160.13;;;11.50;100.00
47753;BME280;2038;51.728;6.674;2023-03-20T14:12:12;101161.31;;;11.55;99.64
47753;BME280;2038;51.728;6.674;2023-03-20T14:14:42;101154.50;;;11.67;98.96
47753;BME280;2038;51.728;6.674;2023-03-20T14:17:26;101154.81;;;11.71;99.20
47753;BME280;2038;51.728;6.674;2023-03-20T14:19:55;101156.13;;;11.78;99.27
47753;BME280;2038;51.728;6.674;2023-03-20T14:22:33;101148.06;;;11.85;99.26
47753;BME280;2038;51.728;6.674;2023-03-20T14:25:15;101141.47;;;11.76;100.00
47753;BME280;2038;51.728;6.674;2023-03-20T14:27:56;101145.25;;;11.69;97.72
47753;BME280;2038;51.728;6.674;2023-03-20T14:33:05;101141.59;;;11.65;97.72
47753;BME280;2038;51.728;6.674;2023-03-20T14:39:02;101137.25;;;11.51;97.31
47753;BME280;2038;51.728;6.674;2023-03-20T14:45:26;101140.31;;;11.34;98.91
47753;BME280;2038;51.728;6.674;2023-03-20T14:48:34;101138.09;;;11.39;100.00
47753;BME280;2038;51.728;6.674;2023-03-20T14:56:48;101128.47;;;11.35;100.00
47753;BME280;2038;51.728;6.674;2023-03-20T14:59:17;101125.59;;;11.30;100.00
47753;BME280;2038;51.728;6.674;2023-03-20T15:07:32;101118.72;;;11.29;100.00
47753;BME280;2038;51.728;6.674;2023-03-20T15:10:04;101121.63;;;11.22;100.00
47753;BME280;2038;51.728;6.674;2023-03-20T15:12:36;101100.13;;;11.18;100.00
47753;BME280;2038;51.728;6.674;2023-03-20T15:15:22;101116.72;;;11.25;100.00
47753;BME280;2038;51.728;6.674;2023-03-20T15:17:50;101115.19;;;11.27;100.00
47753;BME280;2038;51.728;6.674;2023-03-20T15:20:20;101110.84;;;11.26;100.00
47753;BME280;2038;51.728;6.674;2023-03-20T15:23:00;101103.97;;;11.25;100.00